Startpagina
METAR-TAF:

METAR-TAF

Vliegvelden :

Luchthaven Satu Mare

Satu Mare, Roemenië

breedte: 47-48N, lengte: 022-53E, hoogte: 123 m

Actueel weer

Dit bericht is 16 minuten geleden gemaakt, om 08:30 UTC
Wind 1 kt uit variabele richting
Temperatuur 12°C
Vochtigheid 100%
Druk 1022 hPa
Zicht: 2500 m
Gebroken wolken op 200 ft
nevel

METAR: LRSM 200830Z VRB01KT 2500 BR BKN002 12/12 Q1022

Tijdstip: 11:46 (08:46 UTC)

Verwachting

Dit bericht is 46 minuten geleden gemaakt, om 08:00 UTC
Verwachting geldig van 20 om 09 UTC tot 20 om 18 UTC
Wind 4 kt uit variabele richting
Zicht: 1500 m
Gebroken wolken op 200 ft
nevel
Wijzigt naar
van 20 om 09 UTC tot 20 om 11 UTC
Zicht: 5000 m
Gebroken wolken op 1000 ft
nevel
Wijzigt naar
van 20 om 11 UTC tot 20 om 13 UTC
Zicht 10 km of meer
Gebroken wolken op 1500 ft

TAF: LRSM 200800Z 2009/2018 VRB04KT 1500 BR BKN002 BECMG 2009/2011 5000 BR BKN010 BECMG 2011/2013 9999 NSW BKN015

Waarnemingen en weersverwachtingen van meer dan 4000 vliegvelden (METAR en TAF).

De beschikbare stations zijn de gele en rode punten op de kaart.

Ga met uw muis naar het station om de naam te zien.

Klik dan om waarnemingen en weersverwachtingen te zien.

kaart wijzigen: klik op de groene knoppen met een zwart kruis om in te zoomen, op de groene knop met een streepje om uit te zoomen of op de groene pijlen voor aangrenzende kaarten.


METAR-TAF: